createdAt,value
2022-10-11T00:02:52.251Z,10.50
2022-10-11T00:07:57.337Z,11.40
2022-10-11T00:13:01.148Z,10.77
2022-10-11T00:18:05.581Z,10.43
2022-10-11T00:23:10.322Z,9.32
2022-10-11T00:28:13.665Z,7.85
2022-10-11T00:33:17.019Z,6.57
2022-10-11T00:38:21.810Z,6.50
2022-10-11T00:43:26.801Z,6.30
2022-10-11T00:48:37.532Z,6.07
2022-10-11T00:53:43.021Z,5.50
2022-10-11T00:58:46.777Z,5.75
2022-10-11T01:03:50.122Z,5.10
2022-10-11T01:08:55.142Z,5.50
2022-10-11T01:14:20.859Z,4.75
2022-10-11T01:19:56.038Z,5.53
2022-10-11T01:25:15.941Z,5.35
2022-10-11T01:30:23.238Z,5.43
2022-10-11T01:35:31.726Z,5.50
2022-10-11T01:40:38.442Z,4.60
2022-10-11T01:45:44.627Z,4.47
2022-10-11T01:50:49.757Z,5.05
2022-10-11T01:55:58.432Z,6.38
2022-10-11T02:01:13.112Z,8.18
2022-10-11T02:06:25.786Z,4.45
2022-10-11T02:12:03.162Z,4.30
2022-10-11T02:17:12.166Z,4.25
2022-10-11T02:22:20.553Z,4.60
2022-10-11T02:27:28.713Z,4.57
2022-10-11T02:32:35.157Z,5.10
2022-10-11T02:37:48.051Z,4.90
2022-10-11T02:42:58.781Z,4.45
2022-10-11T02:48:04.529Z,5.47
2022-10-11T02:53:08.094Z,4.90
2022-10-11T02:58:11.377Z,5.60
2022-10-11T03:09:42.493Z,4.68
2022-10-11T03:14:45.856Z,4.75
2022-10-11T03:19:49.236Z,4.53
2022-10-11T03:24:53.926Z,4.45
2022-10-11T03:29:57.860Z,4.65
2022-10-11T03:35:01.436Z,4.50
2022-10-11T03:40:09.563Z,5.22
2022-10-11T03:45:13.339Z,4.85
2022-10-11T03:50:16.655Z,4.90
2022-10-11T03:55:21.456Z,4.70
2022-10-11T04:00:24.786Z,4.63
2022-10-11T04:05:28.090Z,5.72
2022-10-11T04:10:32.794Z,4.70
2022-10-11T04:15:37.836Z,5.13
2022-10-11T04:20:41.231Z,5.53
2022-10-11T04:25:48.290Z,6.30
2022-10-11T04:30:52.199Z,6.90
2022-10-11T04:35:56.357Z,7.43
2022-10-11T04:41:08.603Z,6.80
2022-10-11T04:46:12.148Z,6.13
2022-10-11T04:51:18.446Z,7.50
2022-10-11T04:56:23.344Z,7.50
2022-10-11T05:01:26.685Z,7.68
2022-10-11T05:06:30.086Z,8.85
2022-10-11T05:11:34.846Z,8.02
2022-10-11T05:16:38.188Z,8.10
2022-10-11T05:21:41.536Z,8.07
2022-10-11T05:26:46.358Z,7.93
2022-10-11T05:31:49.671Z,8.38
2022-10-11T05:36:53.001Z,8.23
2022-10-11T05:41:58.133Z,8.48
2022-10-11T05:47:04.332Z,8.85
2022-10-11T05:52:09.240Z,8.68
2022-10-11T05:57:14.282Z,11.05
2022-10-11T06:02:17.599Z,15.40
2022-10-11T06:07:20.978Z,17.85
2022-10-11T06:12:25.751Z,13.25
2022-10-11T06:17:32.153Z,12.77
2022-10-11T06:22:35.565Z,10.90
2022-10-11T06:27:40.272Z,14.32
2022-10-11T06:32:43.591Z,13.10
2022-10-11T06:37:46.968Z,18.98
2022-10-11T06:42:51.629Z,16.38
2022-10-11T06:47:55.057Z,13.25
2022-10-11T06:52:58.410Z,13.50
2022-10-11T06:58:03.294Z,13.90
2022-10-11T07:03:06.699Z,16.40
2022-10-11T07:08:10.016Z,12.23
2022-10-11T07:13:17.196Z,12.27
2022-10-11T07:18:20.783Z,14.85
2022-10-11T07:23:24.438Z,14.90
2022-10-11T07:28:30.634Z,19.05
2022-10-11T07:33:34.986Z,11.82
2022-10-11T07:38:40.653Z,11.68
2022-10-11T07:43:47.808Z,13.10
2022-10-11T07:48:51.209Z,15.25
2022-10-11T07:53:56.638Z,11.60
2022-10-11T07:59:03.609Z,10.50
2022-10-11T08:04:07.122Z,13.23
2022-10-11T08:09:10.650Z,15.93
2022-10-11T08:14:15.609Z,11.95
2022-10-11T08:19:19.390Z,14.43
2022-10-11T08:24:22.782Z,14.90
2022-10-11T08:29:27.534Z,15.70
2022-10-11T08:34:31.390Z,13.68
2022-10-11T08:39:35.283Z,13.50
2022-10-11T08:45:09.466Z,13.68
2022-10-11T08:50:09.566Z,14.52
2022-10-11T08:55:19.315Z,14.38
2022-10-11T09:00:25.408Z,13.15
2022-10-11T09:05:35.327Z,18.02
2022-10-11T09:10:56.429Z,13.63
2022-10-11T09:16:11.478Z,16.08
2022-10-11T09:21:26.100Z,19.75
2022-10-11T09:26:34.552Z,18.88
2022-10-11T09:31:39.331Z,17.10
2022-10-11T09:36:48.109Z,17.38
2022-10-11T09:41:57.881Z,25.75
2022-10-11T09:52:12.027Z,14.95
2022-10-11T09:57:24.981Z,13.48
2022-10-11T10:02:30.600Z,15.27
2022-10-11T10:07:36.404Z,12.75
2022-10-11T10:12:39.841Z,8.70
2022-10-11T10:17:51.344Z,9.52
2022-10-11T10:22:55.101Z,10.80
2022-10-11T10:28:00.478Z,19.00
2022-10-11T10:33:08.835Z,13.35
2022-10-11T10:38:19.852Z,9.40
2022-10-11T10:43:28.816Z,9.73
2022-10-11T10:49:12.035Z,12.25
2022-10-11T10:54:15.712Z,13.48
2022-10-11T10:59:42.755Z,10.95
2022-10-11T11:04:53.826Z,7.93
2022-10-11T11:10:02.521Z,8.90
2022-10-11T11:15:13.324Z,9.88
2022-10-11T11:20:32.883Z,8.60
2022-10-11T11:25:45.145Z,8.18
2022-10-11T11:30:58.442Z,8.15
2022-10-11T11:36:12.053Z,6.57
2022-10-11T11:41:18.770Z,6.60
2022-10-11T11:46:44.354Z,14.35
2022-10-11T11:51:52.826Z,9.50
2022-10-11T11:57:00.997Z,4.90
2022-10-11T12:02:31.159Z,5.88
2022-10-11T12:07:49.959Z,9.35
2022-10-11T12:13:07.197Z,4.70
2022-10-11T12:18:18.030Z,4.78
2022-10-11T12:23:50.549Z,4.65
2022-10-11T12:29:28.675Z,4.30
2022-10-11T12:34:35.620Z,4.00
2022-10-11T12:39:51.759Z,3.10
2022-10-11T12:45:32.264Z,4.15
2022-10-11T12:50:49.573Z,14.48
2022-10-11T12:56:02.278Z,4.45
2022-10-11T13:01:21.462Z,4.90
2022-10-11T13:06:28.219Z,4.33
2022-10-11T13:11:36.036Z,3.50
2022-10-11T13:16:56.736Z,3.00
2022-10-11T13:22:02.505Z,3.53
2022-10-11T13:27:09.911Z,3.72
2022-10-11T13:32:16.800Z,2.78
2022-10-11T13:37:22.599Z,5.50
2022-10-11T13:42:32.027Z,5.45
2022-10-11T13:47:36.486Z,3.90
2022-10-11T13:52:54.212Z,4.20
2022-10-11T13:58:00.985Z,4.40
2022-10-11T14:03:08.993Z,3.03
2022-10-11T14:08:26.341Z,3.55
2022-10-11T14:13:34.590Z,4.57
2022-10-11T14:18:49.039Z,4.25
2022-10-11T14:23:58.534Z,4.05
2022-10-11T14:29:06.923Z,5.03
2022-10-11T14:34:20.376Z,9.13
2022-10-11T14:39:25.745Z,9.05
2022-10-11T14:44:30.471Z,16.95
2022-10-11T14:49:35.619Z,9.40
2022-10-11T14:54:38.999Z,3.50
2022-10-11T14:59:46.542Z,5.03
2022-10-11T15:04:49.932Z,7.75
2022-10-11T15:09:53.301Z,4.20
2022-10-11T15:14:58.282Z,4.80
2022-10-11T15:20:01.726Z,10.35
2022-10-11T15:25:05.894Z,15.40
2022-10-11T15:30:15.912Z,8.57
2022-10-11T15:35:20.545Z,4.55
2022-10-11T15:40:26.663Z,5.82
2022-10-11T15:45:32.305Z,6.75
2022-10-11T15:50:37.923Z,4.68
2022-10-11T15:55:44.743Z,5.43
2022-10-11T16:00:51.518Z,5.47
2022-10-11T16:05:55.732Z,6.47
2022-10-11T16:11:00.071Z,5.95
2022-10-11T16:16:07.515Z,4.55
2022-10-11T16:21:14.443Z,5.43
2022-10-11T16:26:19.119Z,5.60
2022-10-11T16:31:23.910Z,6.30
2022-10-11T16:36:35.129Z,7.80
2022-10-11T16:41:38.982Z,8.80
2022-10-11T16:46:48.203Z,25.35
2022-10-11T16:51:52.884Z,9.98
2022-10-11T16:56:56.311Z,8.80
2022-10-11T17:02:01.140Z,10.70
2022-10-11T17:07:04.582Z,9.70
2022-10-11T17:12:09.145Z,11.15
2022-10-11T17:17:14.450Z,14.50
2022-10-11T17:22:20.124Z,15.85
2022-10-11T17:27:23.527Z,17.35
2022-10-11T17:32:43.767Z,17.15
2022-10-11T17:37:47.284Z,18.40
2022-10-11T17:42:50.680Z,14.75
2022-10-11T17:47:55.647Z,16.63
2022-10-11T17:52:59.172Z,14.02
2022-10-11T17:58:03.404Z,13.50
2022-10-11T18:03:08.473Z,13.25
2022-10-11T18:08:11.894Z,14.27
2022-10-11T18:13:15.500Z,15.55
2022-10-11T18:18:20.865Z,14.40
2022-10-11T18:23:24.225Z,18.70
2022-10-11T18:28:27.671Z,15.63
2022-10-11T18:33:32.455Z,17.20
2022-10-11T18:38:38.113Z,19.15
2022-10-11T18:43:42.357Z,14.90
2022-10-11T18:48:49.742Z,16.50
2022-10-11T18:53:54.509Z,15.50
2022-10-11T18:58:59.181Z,16.15
2022-10-11T19:04:05.529Z,18.35
2022-10-11T19:09:11.772Z,19.48
2022-10-11T19:14:17.289Z,19.00
2022-10-11T19:19:23.949Z,20.65
2022-10-11T19:24:29.169Z,20.73
2022-10-11T19:29:34.041Z,20.85
2022-10-11T19:34:38.803Z,21.10
2022-10-11T19:39:42.175Z,23.83
2022-10-11T19:44:45.547Z,21.45
2022-10-11T19:49:50.281Z,24.45
2022-10-11T19:54:53.668Z,31.15
2022-10-11T20:00:03.367Z,28.92
2022-10-11T20:05:09.858Z,27.42
2022-10-11T20:10:32.554Z,37.65
2022-10-11T20:15:45.535Z,33.15
2022-10-11T20:20:55.281Z,40.13
2022-10-11T20:26:00.048Z,73.38
2022-10-11T20:31:06.627Z,38.70
2022-10-11T20:36:13.406Z,40.97
2022-10-11T20:41:19.097Z,38.30
2022-10-11T20:46:24.562Z,32.15
2022-10-11T20:51:29.809Z,33.17
2022-10-11T20:56:33.970Z,28.00
2022-10-11T21:01:39.628Z,25.15
2022-10-11T21:06:44.650Z,25.42
2022-10-11T21:11:47.988Z,22.85
2022-10-11T21:16:51.533Z,20.42
2022-10-11T21:21:56.375Z,18.85
2022-10-11T21:27:03.003Z,20.75
2022-10-11T21:32:08.866Z,110.30
2022-10-11T21:37:16.008Z,38.55
2022-10-11T21:42:19.459Z,25.15
2022-10-11T21:47:22.917Z,18.90
2022-10-11T21:52:27.688Z,18.92
2022-10-11T21:57:31.096Z,17.63
2022-10-11T22:02:34.731Z,17.92
2022-10-11T22:07:39.707Z,20.80
2022-10-11T22:12:43.057Z,18.58
2022-10-11T22:17:47.106Z,17.58
2022-10-11T22:22:52.079Z,18.40
2022-10-11T22:27:55.503Z,16.67
2022-10-11T22:32:58.854Z,14.45
2022-10-11T22:38:05.542Z,13.57
2022-10-11T22:43:08.877Z,14.32
2022-10-11T22:48:13.218Z,13.65
2022-10-11T22:53:18.466Z,15.80
2022-10-11T22:58:21.870Z,13.30
2022-10-11T23:03:25.282Z,11.73
2022-10-11T23:08:29.943Z,11.23
2022-10-11T23:13:33.409Z,11.55
2022-10-11T23:18:37.220Z,10.63
2022-10-11T23:23:42.124Z,9.50
2022-10-11T23:28:45.648Z,9.93
2022-10-11T23:33:49.480Z,9.05
2022-10-11T23:38:55.541Z,9.38
2022-10-11T23:43:59.249Z,10.07
2022-10-11T23:49:02.782Z,10.75
2022-10-11T23:54:07.718Z,11.90
2022-10-11T23:59:11.105Z,13.40
